Union, Ohio
Current Conditions -  °F | °C
As of 7:56 AM on Thursday 30 Oct 2014 (Local Time) from KDAY Reporting Station
Overcast Overcast  
Wind Chill: 43°   Ceiling: 4000
Heat Index: 43°   Visibility: 10mi
Dew Point: 36°   Wind: 0mph
Humidity: 76%   Direction: NA
Pressure: 30.16"   Gusts: NA
Location:  39.8939°N, 84.3314°W
Report Text: KDAY 301156Z 00000KT 10SM OVC040 06/02 A3016 RMK AO2 SLP217 T00610022 10067 20056 51008
Loading
Personal Weather Stations






























Interactive Weather Map
Tropical Storm Tracking
New forecast layout! Learn more

10-Day Weather Forecast

Advertisements
Track Severe Weather on mobile